Terminal Aerodrome Forecast
Issued by NWS Charleston, WV

Current Version | Previous Version | Text Only | Print | Product List | Glossary Off
Versions: 1 2 3 4 5 6 7 8 9 10 11 12 13 14 15 16 17 18 19 20 21 22 23 24 25 26 27

000
FTUS41 KRLX 141100
TAFEKN
TAF
KEKN 141120Z 1412/1512 13004KT 3SM BR OVC004
      TEMPO 1412/1413 1SM BR SCT004
     FM141300 VRB03KT 3SM BR BKN004
     FM141330 00000KT P6SM SCT035
     FM150300 00000KT 6SM BR SCT025
     FM150500 00000KT 1 1/2SM BR SCT008
     FM150600 00000KT 1/4SM FG VV001=

USA.gov is the U.S. government's official web portal to all federal, state and local government web resources and services.